createdAt,value
2022-09-04T00:01:52.371Z,93.40
2022-09-04T00:04:45.445Z,93.60
2022-09-04T00:07:39.864Z,93.60
2022-09-04T00:10:32.132Z,93.60
2022-09-04T00:13:23.260Z,93.90
2022-09-04T00:16:14.440Z,93.90
2022-09-04T00:19:05.411Z,94.00
2022-09-04T00:21:56.887Z,94.00
2022-09-04T00:24:49.116Z,94.10
2022-09-04T00:27:44.284Z,94.30
2022-09-04T00:30:30.591Z,94.20
2022-09-04T00:33:21.719Z,94.40
2022-09-04T00:36:09.315Z,94.30
2022-09-04T00:38:59.452Z,94.50
2022-09-04T00:42:03.749Z,94.40
2022-09-04T00:44:59.816Z,94.80
2022-09-04T00:48:13.575Z,94.80
2022-09-04T00:51:30.824Z,94.90
2022-09-04T00:54:41.780Z,94.80
2022-09-04T00:57:57.536Z,95.20
2022-09-04T01:00:46.294Z,95.30
2022-09-04T01:03:45.475Z,95.30
2022-09-04T01:06:42.761Z,95.40
2022-09-04T01:09:53.205Z,95.50
2022-09-04T01:12:46.659Z,95.80
2022-09-04T01:15:41.244Z,95.90
2022-09-04T01:18:33.893Z,95.90
2022-09-04T01:21:40.731Z,96.10
2022-09-04T01:24:55.472Z,96.00
2022-09-04T01:27:55.669Z,96.00
2022-09-04T01:30:50.215Z,96.40
2022-09-04T01:33:43.847Z,96.60
2022-09-04T01:36:39.202Z,96.50
2022-09-04T01:39:29.134Z,96.80
2022-09-04T01:42:22.335Z,96.70
2022-09-04T01:45:11.907Z,97.20
2022-09-04T01:48:10.486Z,97.20
2022-09-04T01:51:02.320Z,97.30
2022-09-04T01:53:59.294Z,97.40
2022-09-04T01:56:52.262Z,97.40
2022-09-04T01:59:53.426Z,97.70
2022-09-04T02:03:03.996Z,98.00
2022-09-04T02:06:02.703Z,98.30
2022-09-04T02:09:10.855Z,98.40
2022-09-04T02:12:09.545Z,98.70
2022-09-04T02:15:05.219Z,98.80
2022-09-04T02:18:03.912Z,99.30
2022-09-04T02:20:57.903Z,99.70
2022-09-04T02:23:51.536Z,99.90
2022-09-04T02:26:43.839Z,99.90
2022-09-04T02:29:39.201Z,99.90
2022-09-04T02:32:37.921Z,99.90
2022-09-04T02:35:35.302Z,99.90
2022-09-04T02:38:30.905Z,99.90
2022-09-04T02:41:26.678Z,99.90
2022-09-04T02:44:24.300Z,99.90
2022-09-04T02:47:20.742Z,99.90
2022-09-04T02:50:15.323Z,99.90
2022-09-04T02:53:18.207Z,99.90
2022-09-04T02:56:16.068Z,99.90
2022-09-04T02:59:18.387Z,99.90
2022-09-04T03:02:06.729Z,99.90
2022-09-04T03:05:01.123Z,99.90
2022-09-04T03:07:55.565Z,99.90
2022-09-04T03:10:48.588Z,99.90
2022-09-04T03:13:42.790Z,99.90
2022-09-04T03:16:36.283Z,99.90
2022-09-04T03:19:30.453Z,99.90
2022-09-04T03:22:23.213Z,99.90
2022-09-04T03:25:33.336Z,99.90
2022-09-04T03:28:32.156Z,99.90
2022-09-04T03:31:31.161Z,99.90
2022-09-04T03:34:31.375Z,99.90
2022-09-04T03:37:42.683Z,99.90
2022-09-04T03:40:39.924Z,99.90
2022-09-04T03:43:44.262Z,99.90
2022-09-04T03:46:48.338Z,99.90
2022-09-04T03:49:48.212Z,99.90
2022-09-04T03:52:45.414Z,99.90
2022-09-04T03:55:58.155Z,99.90
2022-09-04T03:59:01.754Z,99.90
2022-09-04T04:01:53.935Z,99.90
2022-09-04T04:05:06.999Z,99.90
2022-09-04T04:08:11.147Z,99.90
2022-09-04T04:11:06.390Z,99.90
2022-09-04T04:14:16.329Z,99.90
2022-09-04T04:17:13.678Z,99.90
2022-09-04T04:20:12.024Z,99.90
2022-09-04T04:23:17.871Z,99.90
2022-09-04T04:26:10.359Z,99.90
2022-09-04T04:29:35.123Z,99.90
2022-09-04T04:32:50.257Z,99.90
2022-09-04T04:35:46.591Z,99.90
2022-09-04T04:38:47.616Z,99.90
2022-09-04T04:41:59.029Z,99.90
2022-09-04T04:45:22.323Z,99.90
2022-09-04T04:48:39.123Z,99.90
2022-09-04T04:52:15.926Z,99.90
2022-09-04T04:55:11.954Z,99.90
2022-09-04T04:58:22.339Z,99.90
2022-09-04T05:01:19.114Z,99.90
2022-09-04T05:04:14.156Z,99.90
2022-09-04T05:07:08.067Z,99.90
2022-09-04T05:10:00.937Z,99.90
2022-09-04T05:13:03.067Z,99.90
2022-09-04T05:16:08.856Z,99.90
2022-09-04T05:19:03.042Z,99.90
2022-09-04T05:21:54.624Z,99.90
2022-09-04T05:24:54.165Z,99.90
2022-09-04T05:27:57.811Z,99.90
2022-09-04T05:30:50.192Z,99.90
2022-09-04T05:33:43.021Z,99.90
2022-09-04T05:36:43.156Z,99.90
2022-09-04T05:39:31.930Z,99.90
2022-09-04T05:42:42.979Z,99.90
2022-09-04T05:45:40.356Z,99.90
2022-09-04T05:48:34.967Z,99.90
2022-09-04T05:51:50.092Z,99.90
2022-09-04T05:55:06.855Z,99.90
2022-09-04T05:58:07.636Z,99.90
2022-09-04T06:01:02.379Z,99.90
2022-09-04T06:04:03.971Z,99.90
2022-09-04T06:07:04.222Z,99.90
2022-09-04T06:10:01.229Z,99.90
2022-09-04T06:13:22.430Z,99.90
2022-09-04T06:16:24.326Z,99.90
2022-09-04T06:19:47.268Z,99.90
2022-09-04T06:23:03.600Z,99.90
2022-09-04T06:26:11.405Z,99.90
2022-09-04T06:29:14.616Z,99.90
2022-09-04T06:32:32.680Z,99.90
2022-09-04T06:35:33.065Z,99.90
2022-09-04T06:38:35.368Z,99.90
2022-09-04T06:41:44.564Z,99.90
2022-09-04T06:44:48.040Z,99.90
2022-09-04T06:47:45.283Z,99.90
2022-09-04T06:50:41.719Z,99.90
2022-09-04T06:53:42.536Z,99.90
2022-09-04T06:56:44.852Z,99.90
2022-09-04T06:59:52.926Z,99.90
2022-09-04T07:03:03.731Z,99.90
2022-09-04T07:05:59.696Z,99.90
2022-09-04T07:09:01.926Z,99.90
2022-09-04T07:12:09.045Z,99.90
2022-09-04T07:15:22.447Z,99.90
2022-09-04T07:18:24.553Z,99.90
2022-09-04T07:21:19.465Z,99.90
2022-09-04T07:24:14.931Z,99.90
2022-09-04T07:27:12.170Z,99.90
2022-09-04T07:30:05.567Z,99.90
2022-09-04T07:32:56.404Z,99.90
2022-09-04T07:35:49.328Z,99.90
2022-09-04T07:38:39.501Z,99.90
2022-09-04T07:41:33.673Z,99.90
2022-09-04T07:44:29.624Z,99.90
2022-09-04T07:47:22.909Z,99.90
2022-09-04T07:50:13.985Z,99.90
2022-09-04T07:53:17.169Z,99.90
2022-09-04T07:56:13.445Z,99.90
2022-09-04T07:59:23.800Z,99.90
2022-09-04T08:02:37.688Z,99.90
2022-09-04T08:05:27.152Z,99.90
2022-09-04T08:08:44.531Z,99.90
2022-09-04T08:12:00.582Z,99.90
2022-09-04T08:14:55.320Z,99.90
2022-09-04T08:17:57.760Z,99.90
2022-09-04T08:20:49.103Z,99.90
2022-09-04T08:23:56.628Z,99.90
2022-09-04T08:26:56.569Z,99.90
2022-09-04T08:30:04.070Z,99.90
2022-09-04T08:33:29.919Z,99.90
2022-09-04T08:36:26.384Z,99.90
2022-09-04T08:39:20.488Z,99.90
2022-09-04T08:42:43.172Z,99.90
2022-09-04T08:46:05.674Z,99.90
2022-09-04T08:49:26.303Z,99.90
2022-09-04T08:52:36.248Z,99.90
2022-09-04T08:55:39.646Z,99.90
2022-09-04T08:58:50.558Z,99.90
2022-09-04T09:02:24.017Z,99.90
2022-09-04T09:05:44.839Z,99.90
2022-09-04T09:09:04.945Z,99.90
2022-09-04T09:12:23.209Z,99.90
2022-09-04T09:15:30.253Z,99.90
2022-09-04T09:18:37.139Z,99.90
2022-09-04T09:21:42.928Z,99.90
2022-09-04T09:24:54.141Z,99.90
2022-09-04T09:28:19.116Z,99.90
2022-09-04T09:31:34.488Z,99.90
2022-09-04T09:35:08.685Z,99.90
2022-09-04T09:38:19.955Z,99.90
2022-09-04T09:41:42.837Z,99.90
2022-09-04T09:45:04.167Z,99.90
2022-09-04T09:48:37.145Z,99.90
2022-09-04T09:51:55.847Z,99.90
2022-09-04T09:55:14.853Z,99.90
2022-09-04T09:58:32.092Z,99.90
2022-09-04T10:01:33.115Z,99.90
2022-09-04T10:04:56.815Z,99.90
2022-09-04T10:08:11.586Z,99.80
2022-09-04T10:11:39.460Z,99.40
2022-09-04T10:14:51.402Z,99.20
2022-09-04T10:18:05.082Z,99.50
2022-09-04T10:21:34.104Z,99.00
2022-09-04T10:24:53.609Z,98.20
2022-09-04T10:28:03.164Z,97.90
2022-09-04T10:31:17.640Z,98.00
2022-09-04T10:34:25.480Z,97.40
2022-09-04T10:37:31.963Z,96.20
2022-09-04T10:40:43.833Z,97.40
2022-09-04T10:43:49.023Z,96.30
2022-09-04T10:46:45.275Z,96.20
2022-09-04T10:49:55.175Z,96.50
2022-09-04T10:53:12.279Z,95.50
2022-09-04T10:56:09.322Z,95.50
2022-09-04T10:59:38.192Z,95.30
2022-09-04T11:02:54.340Z,95.20
2022-09-04T11:06:11.679Z,94.60
2022-09-04T11:09:28.479Z,94.80
2022-09-04T11:12:57.942Z,94.30
2022-09-04T11:16:01.233Z,93.90
2022-09-04T11:19:20.954Z,94.20
2022-09-04T11:22:54.753Z,94.30
2022-09-04T11:26:13.957Z,93.80
2022-09-04T11:29:12.408Z,92.90
2022-09-04T11:32:16.955Z,92.50
2022-09-04T11:35:29.746Z,93.30
2022-09-04T11:38:19.442Z,92.90
2022-09-04T11:41:43.282Z,92.60
2022-09-04T11:45:00.578Z,92.50
2022-09-04T11:48:13.263Z,92.10
2022-09-04T11:51:21.619Z,92.30
2022-09-04T11:54:25.609Z,92.70
2022-09-04T11:57:30.173Z,92.10
2022-09-04T12:00:17.790Z,92.20
2022-09-04T12:03:36.017Z,91.20
2022-09-04T12:06:38.974Z,91.80
2022-09-04T12:09:50.928Z,91.50
2022-09-04T12:13:14.640Z,91.60
2022-09-04T12:16:22.239Z,91.20
2022-09-04T12:19:46.893Z,91.10
2022-09-04T12:23:11.848Z,91.20
2022-09-04T12:26:24.665Z,91.10
2022-09-04T12:29:41.186Z,91.20
2022-09-04T12:33:03.708Z,90.90
2022-09-04T12:36:20.163Z,91.90
2022-09-04T12:39:36.233Z,91.60
2022-09-04T12:42:26.736Z,91.40
2022-09-04T12:45:22.629Z,91.30
2022-09-04T12:48:19.749Z,91.00
2022-09-04T12:51:13.901Z,90.90
2022-09-04T12:54:20.323Z,90.80
2022-09-04T12:57:22.698Z,90.60
2022-09-04T13:00:13.165Z,90.80
2022-09-04T13:03:11.247Z,90.70
2022-09-04T13:06:18.216Z,90.50
2022-09-04T13:09:14.040Z,90.40
2022-09-04T13:12:12.457Z,90.20
2022-09-04T13:15:26.895Z,91.00
2022-09-04T13:18:24.211Z,91.10
2022-09-04T13:21:25.367Z,90.90
2022-09-04T13:24:25.530Z,90.20
2022-09-04T13:27:27.002Z,90.30
2022-09-04T13:30:19.084Z,90.30
2022-09-04T13:33:18.529Z,89.60
2022-09-04T13:36:16.638Z,90.40
2022-09-04T13:39:41.786Z,89.60
2022-09-04T13:42:52.588Z,89.40
2022-09-04T13:45:44.405Z,89.60
2022-09-04T13:48:38.359Z,90.10
2022-09-04T13:51:29.791Z,89.90
2022-09-04T13:54:24.902Z,90.10
2022-09-04T13:57:17.291Z,89.50
2022-09-04T14:00:07.609Z,89.60
2022-09-04T14:03:01.264Z,90.40
2022-09-04T14:05:47.835Z,89.60
2022-09-04T14:08:34.577Z,88.80
2022-09-04T14:11:37.121Z,88.30
2022-09-04T14:15:01.129Z,90.00
2022-09-04T14:17:55.782Z,88.30
2022-09-04T14:20:51.444Z,89.20
2022-09-04T14:23:48.211Z,88.20
2022-09-04T14:26:47.267Z,89.10
2022-09-04T14:29:39.965Z,89.00
2022-09-04T14:32:41.120Z,89.30
2022-09-04T14:35:35.909Z,86.90
2022-09-04T14:38:42.271Z,88.20
2022-09-04T14:41:42.276Z,88.00
2022-09-04T14:44:42.597Z,88.00
2022-09-04T14:47:37.725Z,87.60
2022-09-04T14:50:30.371Z,87.30
2022-09-04T14:53:26.309Z,87.30
2022-09-04T14:56:23.344Z,87.00
2022-09-04T14:59:18.333Z,87.20
2022-09-04T15:02:24.335Z,86.70
2022-09-04T15:05:20.826Z,86.30
2022-09-04T15:08:09.855Z,86.50
2022-09-04T15:11:03.340Z,86.40
2022-09-04T15:13:54.940Z,86.60
2022-09-04T15:16:50.646Z,86.20
2022-09-04T15:19:46.571Z,86.60
2022-09-04T15:22:41.148Z,86.30
2022-09-04T15:25:58.891Z,85.20
2022-09-04T15:28:51.169Z,86.10
2022-09-04T15:31:40.218Z,86.50
2022-09-04T15:34:28.683Z,85.20
2022-09-04T15:37:22.177Z,85.60
2022-09-04T15:40:13.840Z,85.50
2022-09-04T15:43:18.805Z,85.20
2022-09-04T15:46:12.571Z,86.00
2022-09-04T15:49:29.596Z,86.80
2022-09-04T15:52:38.020Z,86.40
2022-09-04T15:55:27.480Z,85.30
2022-09-04T15:58:20.948Z,84.80
2022-09-04T16:01:16.832Z,86.70
2022-09-04T16:04:12.636Z,86.60
2022-09-04T16:07:34.166Z,85.10
2022-09-04T16:10:25.752Z,86.00
2022-09-04T16:13:32.364Z,86.10
2022-09-04T16:16:25.218Z,84.80
2022-09-04T16:19:25.436Z,85.40
2022-09-04T16:22:25.929Z,85.50
2022-09-04T16:25:27.330Z,85.00
2022-09-04T16:28:25.419Z,86.10
2022-09-04T16:31:14.402Z,84.60
2022-09-04T16:34:20.024Z,86.20
2022-09-04T16:37:15.082Z,86.00
2022-09-04T16:40:13.531Z,86.50
2022-09-04T16:43:12.060Z,86.80
2022-09-04T16:46:08.819Z,90.00
2022-09-04T16:48:59.171Z,90.40
2022-09-04T16:51:51.284Z,90.20
2022-09-04T16:54:49.235Z,89.60
2022-09-04T16:57:41.813Z,89.20
2022-09-04T17:00:29.772Z,91.00
2022-09-04T17:03:22.599Z,90.00
2022-09-04T17:06:21.592Z,90.80
2022-09-04T17:09:21.570Z,90.30
2022-09-04T17:12:23.271Z,92.00
2022-09-04T17:15:21.093Z,92.70
2022-09-04T17:18:09.567Z,91.70
2022-09-04T17:23:34.088Z,91.80
2022-09-04T17:28:56.418Z,93.00
2022-09-04T17:29:16.026Z,91.40
2022-09-04T17:30:40.972Z,93.10
2022-09-04T17:38:21.686Z,91.80
2022-09-04T17:40:38.904Z,93.70
2022-09-04T17:40:53.464Z,94.70
2022-09-04T17:43:27.074Z,94.00
2022-09-04T17:46:27.642Z,94.30
2022-09-04T17:49:20.415Z,94.90
2022-09-04T17:52:08.808Z,96.20
2022-09-04T17:55:03.864Z,97.20
2022-09-04T17:57:58.932Z,96.60
2022-09-04T18:01:14.034Z,98.30
2022-09-04T18:04:23.699Z,99.30
2022-09-04T18:07:44.763Z,98.30
2022-09-04T18:10:34.234Z,97.10
2022-09-04T18:13:37.886Z,98.90
2022-09-04T18:17:11.901Z,97.60
2022-09-04T18:20:10.417Z,97.40
2022-09-04T18:23:30.797Z,96.90
2022-09-04T18:26:27.858Z,97.90
2022-09-04T18:32:43.163Z,98.10
2022-09-04T18:37:09.677Z,98.40
2022-09-04T18:37:20.594Z,97.80
2022-09-04T18:39:14.004Z,98.20
2022-09-04T18:50:22.260Z,97.80
2022-09-04T18:50:44.271Z,98.40
2022-09-04T18:50:45.117Z,98.30
2022-09-04T18:52:12.045Z,98.00
2022-09-04T18:55:08.369Z,98.10
2022-09-04T18:58:00.469Z,98.60
2022-09-04T19:00:53.041Z,98.80
2022-09-04T19:03:45.504Z,98.40
2022-09-04T19:06:38.663Z,98.80
2022-09-04T19:09:29.936Z,97.70
2022-09-04T19:12:39.607Z,98.00
2022-09-04T19:15:51.349Z,98.60
2022-09-04T19:18:50.183Z,98.30
2022-09-04T19:21:41.583Z,98.80
2022-09-04T19:24:38.064Z,98.20
2022-09-04T19:27:29.036Z,97.80
2022-09-04T19:30:23.726Z,99.70
2022-09-04T19:33:20.459Z,99.10
2022-09-04T19:36:14.175Z,98.80
2022-09-04T19:45:55.528Z,98.70
2022-09-04T19:45:59.673Z,99.30
2022-09-04T19:46:15.506Z,99.20
2022-09-04T19:49:25.504Z,99.50
2022-09-04T19:53:30.534Z,99.60
2022-09-04T19:55:26.038Z,99.40
2022-09-04T19:58:16.196Z,99.30
2022-09-04T20:01:06.204Z,99.10
2022-09-04T20:03:59.441Z,99.60
2022-09-04T20:06:48.756Z,99.10
2022-09-04T20:09:40.971Z,99.30
2022-09-04T20:12:33.015Z,99.60
2022-09-04T20:15:28.337Z,99.90
2022-09-04T20:18:23.253Z,99.50
2022-09-04T20:21:19.080Z,99.90
2022-09-04T20:24:11.160Z,99.50
2022-09-04T20:27:06.486Z,99.60
2022-09-04T20:29:57.620Z,99.20
2022-09-04T20:32:53.955Z,99.90
2022-09-04T20:35:47.641Z,99.90
2022-09-04T20:38:43.810Z,99.90
2022-09-04T20:41:37.407Z,99.60
2022-09-04T20:44:31.325Z,99.90
2022-09-04T20:52:41.601Z,99.90
2022-09-04T20:53:00.196Z,99.90
2022-09-04T20:53:58.223Z,99.90
2022-09-04T20:58:28.262Z,99.90
2022-09-04T21:03:10.759Z,99.90
2022-09-04T21:03:34.447Z,99.90
2022-09-04T21:06:28.916Z,99.90
2022-09-04T21:09:31.584Z,99.90
2022-09-04T21:12:31.495Z,99.90
2022-09-04T21:15:30.687Z,99.90
2022-09-04T21:18:45.899Z,99.90
2022-09-04T21:22:32.324Z,99.90
2022-09-04T21:25:34.764Z,99.90
2022-09-04T21:28:52.593Z,99.90
2022-09-04T21:31:58.682Z,99.90
2022-09-04T21:34:57.288Z,99.90
2022-09-04T21:37:52.048Z,99.90
2022-09-04T21:41:04.490Z,99.90
2022-09-04T21:44:22.596Z,99.90
2022-09-04T21:47:39.564Z,99.90
2022-09-04T21:51:01.072Z,99.90
2022-09-04T21:54:29.875Z,99.90
2022-09-04T22:02:30.531Z,99.90
2022-09-04T22:02:47.504Z,99.90
2022-09-04T22:05:01.143Z,99.90
2022-09-04T22:10:41.637Z,99.90
2022-09-04T22:13:29.477Z,99.90
2022-09-04T22:14:32.989Z,99.90
2022-09-04T22:17:41.851Z,99.90
2022-09-04T22:20:52.411Z,99.90
2022-09-04T22:24:16.177Z,99.90
2022-09-04T22:27:29.784Z,99.90
2022-09-04T22:30:21.032Z,99.90
2022-09-04T22:34:16.025Z,99.90
2022-09-04T22:37:21.059Z,99.90
2022-09-04T22:40:23.568Z,99.90
2022-09-04T22:43:16.465Z,99.90
2022-09-04T22:46:31.336Z,99.90
2022-09-04T22:49:47.375Z,99.90
2022-09-04T22:53:06.631Z,99.90
2022-09-04T22:56:22.840Z,99.90
2022-09-04T22:59:33.028Z,99.90
2022-09-04T23:03:07.653Z,99.90
2022-09-04T23:07:57.492Z,99.90
2022-09-04T23:13:53.166Z,99.90
2022-09-04T23:13:58.088Z,99.90
2022-09-04T23:16:47.059Z,99.90
2022-09-04T23:26:32.946Z,99.90
2022-09-04T23:26:42.691Z,99.90
2022-09-04T23:27:03.659Z,99.90
2022-09-04T23:30:12.479Z,99.90
2022-09-04T23:33:38.002Z,99.90
2022-09-04T23:37:01.137Z,99.90
2022-09-04T23:40:19.006Z,99.90
2022-09-04T23:43:35.116Z,99.90
2022-09-04T23:46:47.252Z,99.90
2022-09-04T23:49:53.850Z,99.90
2022-09-04T23:52:53.205Z,99.90
2022-09-04T23:55:50.602Z,99.90
2022-09-04T23:59:18.959Z,99.90
